createdAt,value
2018-06-29T00:00:07.550Z,64.89
2018-06-29T00:01:07.585Z,64.79
2018-06-29T00:02:07.512Z,65.37
2018-06-29T00:03:07.599Z,65.27
2018-06-29T00:04:07.472Z,65.27
2018-06-29T00:05:07.512Z,65.27
2018-06-29T00:06:07.437Z,65.66
2018-06-29T00:07:07.527Z,66.04
2018-06-29T00:08:07.395Z,65.56
2018-06-29T00:09:07.437Z,65.94
2018-06-29T00:10:07.362Z,65.46
2018-06-29T00:11:07.451Z,66.04
2018-06-29T00:12:07.509Z,66.14
2018-06-29T00:13:07.498Z,66.24
2018-06-29T00:14:07.277Z,66.14
2018-06-29T00:15:07.383Z,66.52
2018-06-29T00:16:07.418Z,66.39
2018-06-29T00:17:07.290Z,66.30
2018-06-29T00:18:07.200Z,66.30
2018-06-29T00:19:07.307Z,66.49
2018-06-29T00:20:07.174Z,66.20
2018-06-29T00:21:07.217Z,65.81
2018-06-29T00:22:07.127Z,66.39
2018-06-29T00:23:07.230Z,66.49
2018-06-29T00:24:07.092Z,67.16
2018-06-29T00:25:07.141Z,66.58
2018-06-29T00:26:07.049Z,66.58
2018-06-29T00:27:07.154Z,66.58
2018-06-29T00:28:07.011Z,66.97
2018-06-29T00:29:07.066Z,67.26
2018-06-29T00:30:06.967Z,67.74
2018-06-29T00:31:07.081Z,67.45
2018-06-29T00:32:06.929Z,67.65
2018-06-29T00:33:06.993Z,67.26
2018-06-29T00:34:06.893Z,67.26
2018-06-29T00:35:07.009Z,67.45
2018-06-29T00:36:06.852Z,67.55
2018-06-29T00:37:06.917Z,67.45
2018-06-29T00:38:06.815Z,67.26
2018-06-29T00:39:06.934Z,67.74
2018-06-29T00:40:06.772Z,67.16
2018-06-29T00:41:06.844Z,67.55
2018-06-29T00:42:06.733Z,67.45
2018-06-29T00:43:06.862Z,67.55
2018-06-29T00:44:06.695Z,67.55
2018-06-29T00:45:06.770Z,67.93
2018-06-29T00:46:06.655Z,67.93
2018-06-29T00:47:06.784Z,68.03
2018-06-29T00:48:06.618Z,68.32
2018-06-29T00:49:06.696Z,68.32
2018-06-29T00:50:06.580Z,68.32
2018-06-29T00:51:06.709Z,68.03
2018-06-29T00:52:06.538Z,68.51
2018-06-29T00:53:06.624Z,68.22
2018-06-29T00:54:06.497Z,68.09
2018-06-29T00:55:06.635Z,68.09
2018-06-29T00:56:06.461Z,68.86
2018-06-29T00:57:06.549Z,68.86
2018-06-29T00:58:06.420Z,68.48
2018-06-29T00:59:06.567Z,68.96
2018-06-29T01:00:06.381Z,68.48
2018-06-29T01:01:06.474Z,69.06
2018-06-29T01:02:06.339Z,68.96
2018-06-29T01:03:06.492Z,69.15
2018-06-29T01:04:06.304Z,69.24
2018-06-29T01:05:06.401Z,69.06
2018-06-29T01:06:06.261Z,69.06
2018-06-29T01:07:06.418Z,69.15
2018-06-29T01:08:06.282Z,69.06
2018-06-29T01:09:06.329Z,69.34
2018-06-29T01:10:06.183Z,69.44
2018-06-29T01:11:06.343Z,69.73
2018-06-29T01:12:06.147Z,69.92
2018-06-29T01:13:06.263Z,69.92
2018-06-29T01:14:06.107Z,69.69
2018-06-29T01:15:06.268Z,69.69
2018-06-29T01:16:06.064Z,69.92
2018-06-29T01:17:06.182Z,70.56
2018-06-29T01:18:06.025Z,70.65
2018-06-29T01:19:06.198Z,70.84
2018-06-29T01:20:05.985Z,70.75
2018-06-29T01:21:06.109Z,70.75
2018-06-29T01:22:05.946Z,70.84
2018-06-29T01:23:06.122Z,70.94
2018-06-29T01:24:05.905Z,70.56
2018-06-29T01:25:06.035Z,70.65
2018-06-29T01:26:05.863Z,71.04
2018-06-29T01:27:06.049Z,71.14
2018-06-29T01:28:05.831Z,71.52
2018-06-29T01:29:05.961Z,71.23
2018-06-29T01:30:05.788Z,71.42
2018-06-29T01:31:05.977Z,71.52
2018-06-29T01:32:05.748Z,71.91
2018-06-29T01:33:05.890Z,71.71
2018-06-29T01:34:05.710Z,71.91
2018-06-29T01:35:05.799Z,72.00
2018-06-29T01:36:05.670Z,71.52
2018-06-29T01:37:05.813Z,71.81
2018-06-29T01:38:05.631Z,71.96
2018-06-29T01:39:05.722Z,72.09
2018-06-29T01:40:05.596Z,72.54
2018-06-29T01:41:05.736Z,72.06
2018-06-29T01:42:05.554Z,72.38
2018-06-29T01:43:05.655Z,72.38
2018-06-29T01:44:05.554Z,72.25
2018-06-29T01:45:05.662Z,71.77
2018-06-29T01:46:05.466Z,71.58
2018-06-29T01:47:05.573Z,72.16
2018-06-29T01:48:05.429Z,72.73
2018-06-29T01:49:05.588Z,72.83
2018-06-29T01:50:05.389Z,73.11
2018-06-29T01:51:05.499Z,73.11
2018-06-29T01:52:05.364Z,72.92
2018-06-29T01:53:05.410Z,73.31
2018-06-29T01:54:05.310Z,73.41
2018-06-29T01:55:05.323Z,72.54
2018-06-29T01:56:05.269Z,73.56
2018-06-29T01:57:05.340Z,73.75
2018-06-29T01:58:05.220Z,73.46
2018-06-29T01:59:05.262Z,74.27
2018-06-29T02:00:05.185Z,74.23
2018-06-29T02:01:05.261Z,74.27
2018-06-29T02:02:05.146Z,73.85
2018-06-29T02:03:05.174Z,73.85
2018-06-29T02:04:05.105Z,74.33
2018-06-29T02:05:05.188Z,74.04
2018-06-29T02:06:05.069Z,74.62
2018-06-29T02:07:05.099Z,74.33
2018-06-29T02:08:05.075Z,74.04
2018-06-29T02:09:05.114Z,73.94
2018-06-29T02:10:04.985Z,73.94
2018-06-29T02:11:05.029Z,74.43
2018-06-29T02:12:04.944Z,74.23
2018-06-29T02:13:05.042Z,74.04
2018-06-29T02:14:04.905Z,73.94
2018-06-29T02:15:04.969Z,74.13
2018-06-29T02:16:04.862Z,74.33
2018-06-29T02:17:04.967Z,74.52
2018-06-29T02:18:04.826Z,74.04
2018-06-29T02:19:04.882Z,74.62
2018-06-29T02:20:04.784Z,74.62
2018-06-29T02:21:04.893Z,74.71
2018-06-29T02:22:04.740Z,74.81
2018-06-29T02:23:04.805Z,75.10
2018-06-29T02:24:04.700Z,74.62
2018-06-29T02:25:04.829Z,75.38
2018-06-29T02:26:04.659Z,75.29
2018-06-29T02:27:04.730Z,75.10
2018-06-29T02:28:04.624Z,75.10
2018-06-29T02:29:04.743Z,75.29
2018-06-29T02:30:04.583Z,75.38
2018-06-29T02:31:04.655Z,75.38
2018-06-29T02:32:04.535Z,75.77
2018-06-29T02:33:04.673Z,75.38
2018-06-29T02:34:04.495Z,75.57
2018-06-29T02:35:04.580Z,76.15
2018-06-29T02:36:04.454Z,75.96
2018-06-29T02:37:04.495Z,76.15
2018-06-29T02:38:04.413Z,75.87
